Time;durP1;ratioP1;P1;durP2;ratioP2;P2;SDS_P1;SDS_P2;PMS_P1;PMS_P2;Temp;Humidity;BMP_temperature;BMP_pressure;BME280_temperature;BME280_humidity;BME280_pressure;Samples;Min_cycle;Max_cycle;Signal;HPM_P1;HPM_P2
2022/09/23 04:53:20;;;;;;;7.30;6.35;;;15.90;66.30;;;;;;5732980;24;20021;-78
2022/09/23 04:55:46;;;;;;;6.60;5.65;;;15.80;65.00;;;;;;4844042;29;20065;-74
2022/09/23 04:58:12;;;;;;;7.90;6.63;;;15.80;66.90;;;;;;4844376;29;20049;-74
2022/09/23 05:00:38;;;;;;;12.88;7.88;;;15.90;66.50;;;;;;4845194;29;20046;-74
2022/09/23 05:03:03;;;;;;;15.88;9.15;;;16.00;66.20;;;;;;4845959;29;20049;-74
2022/09/23 05:05:30;;;;;;;15.60;9.68;;;16.10;65.60;;;;;;4836556;29;20046;-75
2022/09/23 05:07:56;;;;;;;15.40;10.77;;;16.10;65.60;;;;;;4823266;29;20049;-75
2022/09/23 05:10:22;;;;;;;16.88;10.63;;;16.10;65.50;;;;;;4845878;29;20072;-76
2022/09/23 05:12:48;;;;;;;21.65;11.38;;;16.10;65.40;;;;;;4845450;29;20056;-77
2022/09/23 05:15:15;;;;;;;17.13;10.75;;;16.10;65.40;;;;;;4844713;29;20453;-76
2022/09/23 05:17:43;;;;;;;13.73;11.30;;;16.10;65.10;;;;;;4828167;29;20061;-76
2022/09/23 05:20:10;;;;;;;17.90;11.65;;;16.20;65.00;;;;;;4820337;29;20065;-75
2022/09/23 05:22:36;;;;;;;16.88;12.02;;;16.20;64.80;;;;;;4829271;29;20450;-76
2022/09/23 05:25:02;;;;;;;15.48;11.68;;;16.10;64.60;;;;;;4845294;29;20090;-74
2022/09/23 05:27:28;;;;;;;13.45;10.90;;;16.10;64.50;;;;;;4844828;29;20065;-75
2022/09/23 05:29:54;;;;;;;14.10;10.73;;;16.10;64.50;;;;;;4829252;29;20050;-74
2022/09/23 05:32:20;;;;;;;19.63;12.13;;;16.10;64.50;;;;;;4846017;29;20042;-75
2022/09/23 05:34:46;;;;;;;19.08;11.18;;;16.10;64.50;;;;;;4845615;29;20137;-76
2022/09/23 05:37:12;;;;;;;16.02;12.40;;;16.10;64.40;;;;;;4829015;29;20488;-72
2022/09/23 05:39:37;;;;;;;19.83;12.80;;;16.10;64.30;;;;;;4845489;29;20442;-75
2022/09/23 05:42:07;;;;;;;18.45;14.05;;;16.10;63.50;;;;;;4829402;29;20140;-78
2022/09/23 05:44:32;;;;;;;16.98;13.20;;;16.10;62.10;;;;;;4829359;29;20081;-74
2022/09/23 05:46:58;;;;;;;16.08;13.25;;;16.00;62.00;;;;;;4844499;29;20138;-75
2022/09/23 05:49:24;;;;;;;17.10;13.45;;;15.90;62.10;;;;;;4844092;29;20054;-73
2022/09/23 05:51:50;;;;;;;19.80;14.27;;;15.90;62.10;;;;;;4829642;29;20514;-73
2022/09/23 05:54:15;;;;;;;16.33;13.75;;;15.90;61.80;;;;;;4844659;29;20058;-72
2022/09/23 05:56:42;;;;;;;15.57;13.57;;;15.80;61.80;;;;;;4844491;29;20085;-74
2022/09/23 05:59:08;;;;;;;16.05;12.70;;;15.70;62.10;;;;;;4844826;29;20049;-73
2022/09/23 06:01:35;;;;;;;15.80;13.07;;;15.60;62.80;;;;;;4828189;29;20053;-72
2022/09/23 06:04:03;;;;;;;13.23;11.82;;;15.60;63.30;;;;;;4829048;29;20057;-73
2022/09/23 06:06:40;;;;;;;15.95;11.27;;;15.60;63.50;;;;;;4844558;29;20081;-74
2022/09/23 06:09:08;;;;;;;20.08;12.52;;;15.70;64.00;;;;;;4828857;29;20136;-76
2022/09/23 06:11:35;;;;;;;18.35;12.70;;;15.70;64.10;;;;;;4844240;29;20081;-81
2022/09/23 06:14:02;;;;;;;22.70;11.85;;;15.80;63.80;;;;;;4844531;29;20098;-75
2022/09/23 06:16:31;;;;;;;14.90;11.35;;;15.90;63.70;;;;;;4844706;29;20052;-73
2022/09/23 06:18:59;;;;;;;16.33;9.77;;;15.90;63.60;;;;;;4844501;29;20127;-74
2022/09/23 06:21:25;;;;;;;13.82;9.35;;;15.90;63.80;;;;;;4844082;29;20129;-74
2022/09/23 06:23:50;;;;;;;14.52;9.55;;;15.90;63.90;;;;;;4828099;29;20141;-74
2022/09/23 06:26:16;;;;;;;14.30;9.48;;;15.90;64.00;;;;;;4844447;29;20454;-74
2022/09/23 06:28:43;;;;;;;12.70;7.90;;;16.00;64.20;;;;;;4844773;29;20091;-76
2022/09/23 06:31:12;;;;;;;11.43;8.40;;;16.00;64.30;;;;;;4844486;29;20069;-75
2022/09/23 06:33:38;;;;;;;12.70;8.65;;;16.00;64.30;;;;;;4844128;29;20377;-73
2022/09/23 06:36:05;;;;;;;13.43;8.43;;;16.00;64.40;;;;;;4844372;29;20061;-73
2022/09/23 06:38:35;;;;;;;10.82;6.97;;;16.00;64.40;;;;;;4844297;29;20066;-75
2022/09/23 06:41:02;;;;;;;10.25;7.70;;;16.10;64.50;;;;;;4844654;29;20064;-74
2022/09/23 06:43:28;;;;;;;12.05;7.95;;;16.10;64.50;;;;;;4843587;29;20161;-75
2022/09/23 06:45:55;;;;;;;12.40;11.00;;;16.10;64.50;;;;;;4835742;29;20042;-76
2022/09/23 06:48:25;;;;;;;13.07;11.15;;;16.10;64.00;;;;;;4844147;29;20487;-74
2022/09/23 06:50:52;;;;;;;13.45;12.05;;;16.10;63.40;;;;;;4844192;29;20074;-73
2022/09/23 06:53:22;;;;;;;12.98;11.18;;;16.10;62.90;;;;;;4843826;29;20053;-74
2022/09/23 06:55:48;;;;;;;14.85;11.13;;;16.10;62.60;;;;;;4843802;29;20065;-75
2022/09/23 06:58:14;;;;;;;12.32;10.15;;;16.20;62.50;;;;;;4828292;29;20456;-73
2022/09/23 07:00:40;;;;;;;12.45;11.18;;;16.20;62.40;;;;;;4845115;29;20050;-73
2022/09/23 07:03:07;;;;;;;14.43;12.27;;;16.20;62.40;;;;;;4847805;29;20096;-74
2022/09/23 07:05:33;;;;;;;14.25;10.75;;;16.20;62.40;;;;;;4848248;29;20071;-74
2022/09/23 07:07:59;;;;;;;11.13;9.65;;;16.20;62.50;;;;;;4847507;29;20506;-75
2022/09/23 07:10:27;;;;;;;12.50;9.30;;;16.20;62.70;;;;;;4847528;29;20050;-74
2022/09/23 07:12:54;;;;;;;11.43;9.60;;;16.20;63.50;;;;;;4847738;29;20058;-74
2022/09/23 07:15:20;;;;;;;11.45;8.20;;;16.20;63.20;;;;;;4847955;29;20053;-78
2022/09/23 07:17:45;;;;;;;11.43;9.18;;;16.20;63.40;;;;;;4847498;29;20062;-77
2022/09/23 07:20:11;;;;;;;11.88;9.80;;;16.20;63.40;;;;;;4847361;29;20054;-76
2022/09/23 07:22:37;;;;;;;12.02;9.75;;;16.20;63.40;;;;;;4831225;29;20167;-76
2022/09/23 07:25:05;;;;;;;13.15;9.82;;;16.20;63.30;;;;;;4847242;29;20433;-76
2022/09/23 07:27:32;;;;;;;15.10;10.98;;;16.20;63.20;;;;;;4847113;29;20061;-75
2022/09/23 07:29:57;;;;;;;14.90;10.40;;;16.20;63.20;;;;;;4830506;29;20449;-76
2022/09/23 07:32:24;;;;;;;15.70;10.05;;;16.30;63.20;;;;;;4846623;29;20074;-79
2022/09/23 07:34:50;;;;;;;15.30;9.50;;;16.20;63.30;;;;;;4830839;29;20363;-77
2022/09/23 07:37:17;;;;;;;13.15;9.43;;;16.30;63.50;;;;;;4847032;29;20084;-75
2022/09/23 07:39:43;;;;;;;12.27;8.75;;;16.20;63.60;;;;;;4847319;29;20056;-77
2022/09/23 07:42:12;;;;;;;11.63;8.57;;;16.20;63.80;;;;;;4847179;29;20522;-78
2022/09/23 07:44:42;;;;;;;13.95;8.18;;;16.20;63.90;;;;;;4830398;29;20355;-77
2022/09/23 07:47:07;;;;;;;13.48;7.88;;;16.20;64.00;;;;;;4830565;29;20132;-76
2022/09/23 07:49:34;;;;;;;10.20;7.70;;;16.20;64.10;;;;;;4846997;29;20133;-76
2022/09/23 07:52:01;;;;;;;9.63;7.07;;;16.20;64.20;;;;;;4846477;29;20062;-77
2022/09/23 07:54:28;;;;;;;9.65;7.03;;;16.20;64.30;;;;;;4846605;29;20115;-78
2022/09/23 07:56:54;;;;;;;11.35;7.10;;;16.30;64.40;;;;;;4846329;29;20046;-77
2022/09/23 07:59:20;;;;;;;8.23;6.78;;;16.30;64.40;;;;;;4846658;29;20052;-76
2022/09/23 08:01:51;;;;;;;8.55;6.80;;;16.30;64.50;;;;;;4830823;29;20058;-76
2022/09/23 08:04:29;;;;;;;8.43;6.57;;;16.30;64.60;;;;;;4846969;29;20087;-76
2022/09/23 08:07:05;;;;;;;11.35;6.53;;;16.30;64.70;;;;;;4830243;29;20453;-78
2022/09/23 08:09:40;;;;;;;14.68;6.43;;;16.30;64.80;;;;;;4846533;29;20081;-77
2022/09/23 08:12:06;;;;;;;10.07;7.15;;;16.30;64.90;;;;;;4813997;29;20080;-79
2022/09/23 08:14:32;;;;;;;14.07;6.95;;;16.30;65.00;;;;;;4830118;29;20469;-76
2022/09/23 08:16:58;;;;;;;13.27;8.63;;;16.30;65.00;;;;;;4846296;29;20142;-79
2022/09/23 08:19:24;;;;;;;13.27;9.82;;;16.30;65.20;;;;;;4845529;29;20122;-79
2022/09/23 08:21:53;;;;;;;11.35;8.02;;;16.30;65.30;;;;;;4830238;29;20049;-78
2022/09/23 08:24:20;;;;;;;17.33;9.68;;;16.40;65.60;;;;;;4846159;29;20106;-77
2022/09/23 08:26:47;;;;;;;14.15;8.73;;;16.40;66.00;;;;;;4846027;29;20117;-77
2022/09/23 08:29:15;;;;;;;15.27;9.32;;;16.40;65.80;;;;;;4846484;29;20100;-78
2022/09/23 08:31:41;;;;;;;13.95;7.97;;;16.40;66.50;;;;;;4828949;29;20057;-77
2022/09/23 08:34:07;;;;;;;14.10;8.80;;;16.40;65.90;;;;;;4829776;29;20061;-73
2022/09/23 08:36:34;;;;;;;10.75;7.75;;;16.40;65.90;;;;;;4846015;29;20050;-77
2022/09/23 08:38:59;;;;;;;10.65;6.95;;;16.40;65.90;;;;;;4846210;29;20085;-73
2022/09/23 08:41:44;;;;;;;11.40;6.70;;;16.40;65.90;;;;;;4846138;29;20081;-74
2022/09/23 08:44:15;;;;;;;15.93;6.80;;;16.40;66.10;;;;;;4845305;29;20046;-74
2022/09/23 08:47:04;;;;;;;13.80;6.45;;;16.40;66.00;;;;;;4845080;29;20112;-74
2022/09/23 08:49:38;;;;;;;14.00;6.15;;;16.40;65.90;;;;;;4845563;29;20085;-73
2022/09/23 08:52:22;;;;;;;10.55;5.53;;;16.40;66.00;;;;;;4845933;29;20351;-74
2022/09/23 08:54:48;;;;;;;8.45;5.57;;;16.40;66.00;;;;;;4846146;29;20057;-74
2022/09/23 08:57:46;;;;;;;9.10;5.70;;;16.40;66.10;;;;;;4846228;29;20505;-74
2022/09/23 09:00:20;;;;;;;9.93;5.28;;;16.40;66.10;;;;;;4843054;29;20374;-74
2022/09/23 09:02:47;;;;;;;7.80;4.78;;;16.40;66.10;;;;;;4845645;29;20572;-74
2022/09/23 09:05:21;;;;;;;8.52;4.70;;;16.40;66.20;;;;;;4845387;29;20160;-73
2022/09/23 09:07:48;;;;;;;9.95;4.70;;;16.40;66.30;;;;;;4845584;29;20081;-73
2022/09/23 09:10:19;;;;;;;9.43;4.82;;;16.50;66.30;;;;;;4845671;29;20058;-74
2022/09/23 09:13:08;;;;;;;9.30;4.90;;;16.50;66.30;;;;;;4845457;29;20054;-75
2022/09/23 09:16:13;;;;;;;7.22;3.63;;;16.50;66.30;;;;;;4846179;29;20054;-74
2022/09/23 09:18:54;;;;;;;8.88;3.78;;;16.50;66.30;;;;;;4835096;29;20481;-75
2022/09/23 09:21:34;;;;;;;9.25;4.00;;;16.40;66.30;;;;;;4845086;29;20053;-74
2022/09/23 09:24:03;;;;;;;6.65;3.42;;;16.50;66.40;;;;;;4845119;29;20173;-74
2022/09/23 09:26:32;;;;;;;5.75;3.53;;;16.50;66.40;;;;;;4845530;29;20054;-73
2022/09/23 09:29:18;;;;;;;5.85;3.40;;;16.50;66.40;;;;;;4829443;29;20058;-73
2022/09/23 09:31:46;;;;;;;7.35;3.45;;;16.50;66.40;;;;;;4844768;29;20076;-73
2022/09/23 09:35:08;;;;;;;6.80;2.83;;;16.40;66.40;;;;;;4845896;29;20057;-74
2022/09/23 09:37:46;;;;;;;7.78;2.67;;;16.50;66.40;;;;;;4770952;30;20063;-74
2022/09/23 09:40:15;;;;;;;5.88;2.65;;;16.50;66.50;;;;;;4836184;29;20058;-74
2022/09/23 09:42:45;;;;;;;8.30;2.88;;;16.50;66.50;;;;;;4844978;29;20120;-73
2022/09/23 09:45:25;;;;;;;5.28;2.60;;;16.50;66.50;;;;;;4829140;29;20089;-74
2022/09/23 09:48:02;;;;;;;5.43;2.72;;;16.50;66.50;;;;;;4829248;29;20057;-74
2022/09/23 09:50:50;;;;;;;4.78;2.30;;;16.50;66.50;;;;;;4844909;29;20054;-73
2022/09/23 09:53:22;;;;;;;3.05;2.15;;;16.50;66.50;;;;;;4844553;29;20087;-75
2022/09/23 09:56:11;;;;;;;5.65;2.63;;;16.50;66.60;;;;;;4844610;29;20073;-73
2022/09/23 09:58:58;;;;;;;4.18;2.15;;;16.50;66.60;;;;;;4844222;29;20084;-73
2022/09/23 10:01:32;;;;;;;7.35;4.70;;;16.50;66.60;;;;;;4844514;29;20056;-75
2022/09/23 10:04:03;;;;;;;6.90;4.00;;;16.50;66.80;;;;;;4845037;29;20125;-78
2022/09/23 10:06:34;;;;;;;8.63;6.43;;;16.50;67.00;;;;;;4844774;29;20053;-81
2022/09/23 10:09:03;;;;;;;9.50;6.88;;;16.50;67.30;;;;;;4813700;29;20423;-78
2022/09/23 10:11:31;;;;;;;12.70;8.57;;;16.50;67.70;;;;;;4828446;29;20085;-76
2022/09/23 10:14:16;;;;;;;12.02;8.50;;;16.50;68.40;;;;;;4843965;29;20456;-78
2022/09/23 10:16:43;;;;;;;11.80;9.02;;;16.50;68.80;;;;;;4844944;29;20458;-78
2022/09/23 10:19:28;;;;;;;12.98;9.93;;;16.50;69.20;;;;;;4829042;29;20065;-80
2022/09/23 10:21:59;;;;;;;11.90;9.25;;;16.50;69.50;;;;;;4843995;29;20042;-75
2022/09/23 10:24:31;;;;;;;11.48;10.23;;;16.50;69.60;;;;;;4828213;29;20064;-74
2022/09/23 10:26:56;;;;;;;12.43;8.68;;;16.50;69.60;;;;;;4828518;29;20050;-75
2022/09/23 10:29:32;;;;;;;9.93;7.88;;;16.50;69.50;;;;;;4844641;29;20126;-75
2022/09/23 10:32:27;;;;;;;10.38;7.45;;;16.50;69.50;;;;;;4843402;29;20042;-77
2022/09/23 10:35:12;;;;;;;9.52;7.88;;;16.50;69.50;;;;;;4844019;29;20057;-74
2022/09/23 10:37:51;;;;;;;13.32;7.70;;;16.50;69.60;;;;;;4844419;29;20129;-74
2022/09/23 10:46:37;;;;;;;9.85;6.20;;;16.50;69.30;;;;;;4844171;29;20062;-75
2022/09/23 10:49:37;;;;;;;8.85;6.05;;;16.50;69.30;;;;;;4844687;29;20054;-74
2022/09/23 10:52:38;;;;;;;8.93;5.57;;;16.50;69.30;;;;;;4844049;29;20441;-76
2022/09/23 10:55:22;;;;;;;9.35;5.45;;;16.50;69.20;;;;;;4803714;29;20062;-74
2022/09/23 10:57:51;;;;;;;7.85;4.80;;;16.50;69.20;;;;;;4825469;29;20207;-75
2022/09/23 11:01:00;;;;;;;7.68;5.63;;;16.60;69.20;;;;;;4824969;29;20054;-75
2022/09/23 11:03:52;;;;;;;5.63;4.28;;;16.50;69.10;;;;;;4825472;29;20089;-74
2022/09/23 11:06:56;;;;;;;6.18;4.80;;;16.50;69.10;;;;;;4809194;29;20137;-74
2022/09/23 11:09:44;;;;;;;8.73;4.78;;;16.60;69.10;;;;;;4825178;29;20351;-75
2022/09/23 11:12:36;;;;;;;6.93;4.05;;;16.60;69.10;;;;;;4821141;29;20066;-75
2022/09/23 11:15:15;;;;;;;8.30;4.22;;;16.60;69.10;;;;;;4812704;29;20485;-75
2022/09/23 11:18:09;;;;;;;5.50;3.85;;;16.60;69.10;;;;;;4823121;29;20069;-74
2022/09/23 11:20:40;;;;;;;5.25;3.58;;;16.60;69.10;;;;;;4794398;29;20179;-75
2022/09/23 11:23:07;;;;;;;4.25;3.33;;;16.60;69.70;;;;;;4809851;29;20062;-75
2022/09/23 11:25:46;;;;;;;5.70;3.65;;;16.60;69.00;;;;;;4825087;29;20107;-75
2022/09/23 11:28:17;;;;;;;7.15;3.85;;;16.60;69.10;;;;;;4825423;29;20474;-74
2022/09/23 11:30:55;;;;;;;5.80;3.00;;;16.60;69.00;;;;;;4825256;29;20561;-74
2022/09/23 11:34:00;;;;;;;5.55;3.30;;;16.60;69.00;;;;;;4825390;29;20430;-75
2022/09/23 11:36:45;;;;;;;9.02;3.55;;;16.60;69.00;;;;;;4825223;29;20042;-78
2022/09/23 11:39:23;;;;;;;4.03;3.15;;;16.60;69.10;;;;;;4825940;29;20097;-74
2022/09/23 11:41:53;;;;;;;4.07;2.85;;;16.60;69.10;;;;;;4825993;29;20129;-74
2022/09/23 11:44:34;;;;;;;4.35;2.92;;;16.60;69.10;;;;;;4825352;29;20054;-74
2022/09/23 11:47:12;;;;;;;6.78;3.13;;;16.60;69.10;;;;;;4826512;29;20050;-73
2022/09/23 11:49:54;;;;;;;4.65;3.03;;;16.70;69.10;;;;;;4828549;29;20127;-75
2022/09/23 11:52:30;;;;;;;6.30;3.17;;;16.60;69.10;;;;;;4828856;29;20076;-75
2022/09/23 11:55:01;;;;;;;5.80;3.20;;;16.60;69.10;;;;;;4820331;29;20509;-74
2022/09/23 11:57:46;;;;;;;4.78;2.90;;;16.70;69.10;;;;;;4846872;29;20087;-73
2022/09/23 12:00:20;;;;;;;5.20;2.97;;;16.60;69.10;;;;;;4846980;29;20052;-76
2022/09/23 12:03:08;;;;;;;5.50;3.00;;;16.60;69.10;;;;;;4846389;29;20366;-74
2022/09/23 12:05:38;;;;;;;3.85;2.70;;;16.60;69.10;;;;;;4846908;29;20361;-75
2022/09/23 12:08:24;;;;;;;5.88;2.72;;;16.60;69.10;;;;;;4846500;29;20136;-74
2022/09/23 12:11:08;;;;;;;5.95;2.55;;;16.70;69.10;;;;;;4830468;29;20054;-74
2022/09/23 12:13:43;;;;;;;5.50;2.60;;;16.70;69.10;;;;;;4846186;29;20130;-74
2022/09/23 12:16:14;;;;;;;6.25;2.85;;;16.70;69.10;;;;;;4815623;29;20069;-74
2022/09/23 12:18:52;;;;;;;3.72;2.50;;;16.60;69.10;;;;;;4846637;29;20046;-74
2022/09/23 12:21:47;;;;;;;4.18;2.30;;;16.60;69.10;;;;;;4846573;29;20065;-75
2022/09/23 12:24:40;;;;;;;3.53;2.40;;;16.60;69.10;;;;;;4834450;29;20093;-75
2022/09/23 12:27:15;;;;;;;4.40;2.67;;;16.70;69.10;;;;;;4846437;29;20053;-74
2022/09/23 12:29:41;;;;;;;3.08;2.10;;;16.70;69.10;;;;;;4846554;29;20054;-73
2022/09/23 12:32:15;;;;;;;3.63;2.10;;;16.60;69.10;;;;;;4846060;29;20068;-77
2022/09/23 12:34:48;;;;;;;8.52;3.40;;;16.70;69.10;;;;;;4829495;29;20058;-77
2022/09/23 12:37:28;;;;;;;10.25;4.82;;;16.70;69.30;;;;;;4830171;29;20057;-80
2022/09/23 12:40:00;;;;;;;13.85;9.07;;;16.70;70.00;;;;;;4830283;29;20137;-74
2022/09/23 12:42:26;;;;;;;18.65;9.60;;;16.70;71.00;;;;;;4845845;29;20129;-75
2022/09/23 12:45:15;;;;;;;14.80;7.97;;;16.70;71.40;;;;;;4829858;29;20096;-75
2022/09/23 12:47:42;;;;;;;18.88;10.20;;;16.70;71.40;;;;;;4845904;29;20135;-76
2022/09/23 12:50:46;;;;;;;19.20;9.07;;;16.70;71.70;;;;;;4829798;29;20054;-75
2022/09/23 12:53:34;;;;;;;17.90;10.45;;;16.70;71.50;;;;;;4845578;29;20061;-75
2022/09/23 12:56:13;;;;;;;14.07;8.13;;;16.70;71.80;;;;;;4845627;29;20069;-75
2022/09/23 12:58:42;;;;;;;19.33;10.95;;;16.70;71.60;;;;;;4845701;29;20045;-75
2022/09/23 13:01:13;;;;;;;16.40;10.63;;;16.70;71.90;;;;;;4845905;29;20056;-75
2022/09/23 13:07:00;;;;;;;15.07;10.95;;;16.70;72.60;;;;;;4845708;29;20054;-76
2022/09/23 13:09:29;;;;;;;16.48;12.52;;;16.70;73.00;;;;;;4845911;29;20057;-73
2022/09/23 13:12:02;;;;;;;16.88;11.02;;;16.70;73.10;;;;;;4845513;29;20046;-73
2022/09/23 13:14:31;;;;;;;19.88;9.98;;;16.70;73.20;;;;;;4845374;29;20138;-75
2022/09/23 13:16:58;;;;;;;12.35;9.13;;;16.70;73.20;;;;;;4845549;29;20133;-73
2022/09/23 13:19:26;;;;;;;18.05;9.90;;;16.70;73.10;;;;;;4845836;29;20049;-76
2022/09/23 13:21:52;;;;;;;21.65;10.90;;;16.70;73.20;;;;;;4829229;29;20050;-78
2022/09/23 13:24:19;;;;;;;21.05;12.07;;;16.70;73.40;;;;;;4845763;29;20061;-75
2022/09/23 13:26:52;;;;;;;20.05;12.90;;;16.80;74.30;;;;;;4845275;29;20397;-75
2022/09/23 13:29:33;;;;;;;18.63;13.82;;;16.70;73.90;;;;;;4845550;29;20080;-74
2022/09/23 14:18:34;;;;;;;19.98;16.13;;;16.80;76.60;;;;;;4787666;30;20071;-74
2022/09/23 14:21:00;;;;;;;17.42;13.90;;;16.80;77.00;;;;;;4773345;29;20051;-74
2022/09/23 14:23:28;;;;;;;33.10;16.45;;;16.80;76.30;;;;;;4791323;29;20062;-78
2022/09/23 14:25:55;;;;;;;21.67;14.80;;;16.80;76.80;;;;;;4789103;30;20367;-73
2022/09/23 14:28:23;;;;;;;18.38;13.98;;;16.80;77.10;;;;;;4774291;30;20051;-75
2022/09/23 14:30:52;;;;;;;25.88;14.23;;;16.90;76.60;;;;;;4790231;30;20059;-77
2022/09/23 14:33:27;;;;;;;20.65;13.65;;;16.80;76.20;;;;;;4773940;30;20399;-78
2022/09/23 14:36:00;;;;;;;21.23;16.02;;;16.80;75.90;;;;;;4789801;30;20552;-78
2022/09/23 14:41:22;;;;;;;24.02;16.80;;;16.80;77.00;;;;;;4789429;30;20063;-79
2022/09/23 14:44:20;;;;;;;27.65;17.17;;;16.80;77.50;;;;;;4793212;29;20212;-79
2022/09/23 14:46:56;;;;;;;23.08;13.63;;;16.90;77.60;;;;;;4803192;29;20054;-77
2022/09/23 14:49:23;;;;;;;22.77;13.30;;;16.90;77.40;;;;;;4791575;29;20054;-77
2022/09/23 14:51:57;;;;;;;20.40;14.30;;;16.90;77.10;;;;;;4807701;29;20047;-77
2022/09/23 14:54:29;;;;;;;21.40;13.50;;;16.90;77.00;;;;;;4799940;29;20055;-76
2022/09/23 14:56:55;;;;;;;20.02;13.60;;;16.90;76.90;;;;;;4790020;30;20043;-77
2022/09/23 14:59:26;;;;;;;19.42;12.68;;;16.80;76.80;;;;;;4790002;30;20050;-77
2022/09/23 15:01:52;;;;;;;18.95;12.38;;;16.90;76.90;;;;;;4789352;30;20493;-76
2022/09/23 15:04:20;;;;;;;19.40;11.80;;;16.80;76.80;;;;;;4796157;29;20050;-78
2022/09/23 15:07:22;;;;;;;14.35;12.13;;;16.90;76.80;;;;;;4808287;29;20055;-77
2022/09/23 15:09:48;;;;;;;18.77;11.80;;;16.90;76.70;;;;;;4807960;29;20115;-76
2022/09/23 15:12:16;;;;;;;12.70;10.48;;;16.80;76.50;;;;;;4807529;29;20483;-77
2022/09/23 15:14:50;;;;;;;14.07;10.40;;;16.80;76.40;;;;;;4797029;29;20047;-77
2022/09/23 15:17:21;;;;;;;16.55;11.00;;;16.90;76.50;;;;;;4773727;30;20071;-77
2022/09/23 15:19:56;;;;;;;14.35;10.23;;;16.90;76.40;;;;;;4789681;30;20108;-75
2022/09/23 15:22:23;;;;;;;12.55;8.77;;;16.90;76.40;;;;;;4786990;29;20186;-76
2022/09/23 15:24:52;;;;;;;13.68;8.88;;;16.90;76.30;;;;;;4791577;29;20451;-76
2022/09/23 15:27:30;;;;;;;11.80;9.02;;;16.90;76.20;;;;;;4787425;30;20469;-77
2022/09/23 15:30:22;;;;;;;10.20;7.95;;;16.90;76.20;;;;;;4784329;30;20449;-76
2022/09/23 15:32:47;;;;;;;13.35;8.25;;;16.90;76.00;;;;;;4783549;30;20055;-75
2022/09/23 15:35:17;;;;;;;11.52;8.13;;;16.90;76.10;;;;;;4770252;30;20502;-77
2022/09/23 15:37:45;;;;;;;11.95;7.80;;;16.90;76.00;;;;;;4773629;30;20052;-76
2022/09/23 15:40:40;;;;;;;19.67;8.55;;;16.90;75.90;;;;;;4784528;30;20475;-76
2022/09/23 15:43:19;;;;;;;15.60;13.20;;;16.90;75.80;;;;;;4775884;30;20138;-80
2022/09/23 15:45:58;;;;;;;24.98;14.88;;;17.00;76.00;;;;;;4787276;30;20193;-76
2022/09/23 15:48:25;;;;;;;20.45;16.42;;;17.00;76.30;;;;;;4783661;29;20074;-78
2022/09/23 15:50:53;;;;;;;24.40;19.77;;;17.00;76.60;;;;;;4753476;30;20363;-78
2022/09/23 15:53:22;;;;;;;22.48;19.30;;;17.00;76.90;;;;;;4782223;30;20109;-77
2022/09/23 15:55:54;;;;;;;24.48;19.98;;;16.90;77.10;;;;;;4772110;30;20479;-79
2022/09/23 15:58:26;;;;;;;32.72;21.08;;;16.90;77.40;;;;;;4756892;30;20074;-76
2022/09/23 16:00:55;;;;;;;22.85;19.45;;;16.90;77.50;;;;;;4778691;29;20042;-77
2022/09/23 16:03:27;;;;;;;20.73;18.65;;;16.90;77.60;;;;;;4795276;29;20126;-77
2022/09/23 16:05:56;;;;;;;23.00;18.55;;;16.80;77.60;;;;;;4796160;29;20055;-77
2022/09/23 16:08:23;;;;;;;22.48;19.13;;;16.80;77.80;;;;;;4792420;29;20530;-77
2022/09/23 16:10:52;;;;;;;21.02;18.80;;;16.80;77.80;;;;;;4785324;29;20133;-77
2022/09/23 16:13:18;;;;;;;22.73;19.08;;;16.80;77.90;;;;;;4783951;30;20104;-76
2022/09/23 16:15:44;;;;;;;24.88;19.67;;;16.80;78.10;;;;;;4791872;30;20047;-75
2022/09/23 16:18:10;;;;;;;22.10;19.42;;;16.80;78.10;;;;;;4791909;30;20055;-77
2022/09/23 16:20:41;;;;;;;21.88;19.10;;;16.80;78.20;;;;;;4792058;30;20383;-75
2022/09/23 16:23:39;;;;;;;23.75;17.48;;;16.80;78.20;;;;;;4791751;30;20474;-75
2022/09/23 16:26:33;;;;;;;23.88;16.45;;;16.80;78.20;;;;;;4791851;30;20122;-75
2022/09/23 16:29:00;;;;;;;17.60;14.68;;;16.70;78.10;;;;;;4774332;30;20464;-75
2022/09/23 16:31:28;;;;;;;21.30;15.88;;;16.70;77.70;;;;;;4791977;30;20047;-75
2022/09/23 16:33:54;;;;;;;23.27;15.38;;;16.80;77.70;;;;;;4790818;29;20382;-74
2022/09/23 16:36:27;;;;;;;27.27;14.85;;;16.80;77.60;;;;;;4791548;30;20119;-74
2022/09/23 16:38:54;;;;;;;22.42;14.10;;;16.80;77.40;;;;;;4791588;30;20051;-74
2022/09/23 16:41:22;;;;;;;18.42;13.20;;;16.80;77.40;;;;;;4791786;30;20379;-74
2022/09/23 16:43:49;;;;;;;17.70;12.27;;;16.80;77.20;;;;;;4791830;30;20051;-74
2022/09/23 16:46:16;;;;;;;19.25;12.52;;;16.80;76.90;;;;;;4790767;30;20467;-74
2022/09/23 16:48:42;;;;;;;26.05;12.27;;;16.80;76.90;;;;;;4791113;30;20051;-74
2022/09/23 16:51:14;;;;;;;22.70;14.15;;;16.80;76.50;;;;;;4791939;30;20422;-73
2022/09/23 16:53:41;;;;;;;19.58;13.45;;;16.80;77.30;;;;;;4775911;30;20448;-75
2022/09/23 16:56:08;;;;;;;21.58;12.65;;;16.90;77.30;;;;;;4792067;29;20047;-75
2022/09/23 16:58:35;;;;;;;19.55;13.57;;;16.80;77.30;;;;;;4791411;29;20086;-73
2022/09/23 17:03:46;;;;;;;26.00;14.73;;;16.90;77.50;;;;;;4791524;30;20059;-74
2022/09/23 17:06:14;;;;;;;21.30;13.85;;;16.90;77.40;;;;;;4792676;29;20082;-73
2022/09/23 17:08:41;;;;;;;17.35;12.30;;;16.90;77.30;;;;;;4793032;29;20126;-75
2022/09/23 17:11:09;;;;;;;22.98;13.02;;;16.90;77.30;;;;;;4791504;30;20097;-75
2022/09/23 17:13:35;;;;;;;24.63;12.95;;;16.90;77.20;;;;;;4791168;30;20061;-75
2022/09/23 17:16:02;;;;;;;22.33;12.82;;;17.00;77.20;;;;;;4775159;29;20055;-75
2022/09/23 17:18:28;;;;;;;27.30;12.15;;;17.00;77.10;;;;;;4775173;30;20105;-74
2022/09/23 17:21:07;;;;;;;20.30;12.00;;;17.00;76.90;;;;;;4791877;30;20091;-75
2022/09/23 17:23:34;;;;;;;15.27;10.93;;;17.00;76.80;;;;;;4791298;30;20119;-76
2022/09/23 17:26:01;;;;;;;20.17;11.80;;;17.00;76.70;;;;;;4790594;30;20463;-74
2022/09/23 17:28:28;;;;;;;15.70;10.25;;;17.00;76.60;;;;;;4790887;30;20112;-74
2022/09/23 17:31:02;;;;;;;20.35;10.73;;;17.00;76.60;;;;;;4791011;30;20105;-75
2022/09/23 17:33:30;;;;;;;20.45;10.10;;;17.00;76.50;;;;;;4790739;30;20127;-74
2022/09/23 17:35:58;;;;;;;19.55;10.50;;;17.10;76.50;;;;;;4791036;30;20055;-74
2022/09/23 17:38:25;;;;;;;11.38;8.80;;;17.10;76.40;;;;;;4790526;30;20051;-76
2022/09/23 17:40:52;;;;;;;17.50;9.68;;;17.10;76.30;;;;;;4790971;30;20394;-75
2022/09/23 17:43:23;;;;;;;16.00;9.35;;;17.10;76.20;;;;;;4774657;30;20055;-73
2022/09/23 17:45:51;;;;;;;11.93;8.60;;;17.10;76.10;;;;;;4774845;30;20055;-74
2022/09/23 17:48:18;;;;;;;14.27;8.93;;;17.00;76.00;;;;;;4790501;30;20059;-74
2022/09/23 17:51:00;;;;;;;11.52;8.18;;;17.10;76.00;;;;;;4790878;30;20495;-74
2022/09/23 17:53:30;;;;;;;16.27;8.15;;;17.00;75.90;;;;;;4790415;29;20455;-82
2022/09/23 17:56:00;;;;;;;15.38;10.00;;;17.10;75.90;;;;;;4774460;30;20067;-77
2022/09/23 17:58:28;;;;;;;22.10;13.18;;;17.00;75.90;;;;;;4774124;30;20055;-79
2022/09/23 18:00:55;;;;;;;19.95;12.07;;;17.10;76.00;;;;;;4790078;30;20483;-80
2022/09/23 18:03:22;;;;;;;19.63;13.27;;;17.10;76.00;;;;;;4790435;30;20471;-77
2022/09/23 18:05:48;;;;;;;18.95;13.90;;;17.10;76.00;;;;;;4789350;30;20375;-78
2022/09/23 18:08:13;;;;;;;19.25;14.27;;;17.10;76.10;;;;;;4790236;30;20054;-78
2022/09/23 18:10:39;;;;;;;19.13;13.00;;;17.10;76.10;;;;;;4784490;30;20051;-77
2022/09/23 18:13:05;;;;;;;20.83;15.07;;;17.10;76.10;;;;;;4788136;30;20058;-79
2022/09/23 18:15:34;;;;;;;18.58;15.43;;;17.10;76.10;;;;;;4790256;30;20055;-74
2022/09/23 18:18:00;;;;;;;19.40;14.80;;;17.10;76.20;;;;;;4789941;30;20463;-77
2022/09/23 18:20:26;;;;;;;17.92;13.55;;;17.10;76.20;;;;;;4789416;30;20043;-76
2022/09/23 18:22:52;;;;;;;22.17;16.08;;;17.10;76.20;;;;;;4793458;29;20062;-77
2022/09/23 18:25:17;;;;;;;17.98;15.10;;;17.10;76.30;;;;;;4802153;29;20467;-76
2022/09/23 18:27:43;;;;;;;20.75;15.80;;;17.00;76.30;;;;;;4796312;29;20053;-77
2022/09/23 18:30:09;;;;;;;19.17;15.95;;;17.10;76.40;;;;;;4789623;30;20039;-76
2022/09/23 18:32:38;;;;;;;18.17;15.57;;;17.10;77.00;;;;;;4789719;30;20079;-76
2022/09/23 18:35:13;;;;;;;19.35;17.05;;;17.10;76.50;;;;;;4759351;30;20066;-75
2022/09/23 18:37:38;;;;;;;18.58;16.25;;;17.00;76.50;;;;;;4790231;29;20047;-76
2022/09/23 18:40:05;;;;;;;18.08;15.07;;;17.00;76.60;;;;;;4788982;30;20542;-76
2022/09/23 18:42:31;;;;;;;19.27;15.77;;;17.00;76.50;;;;;;4789809;30;20039;-75
2022/09/23 18:44:57;;;;;;;20.65;16.10;;;17.00;76.50;;;;;;4789539;30;20124;-75
2022/09/23 18:52:59;;;;;;;19.10;15.85;;;17.10;76.50;;;;;;4789943;30;20059;-74
2022/09/23 18:55:25;;;;;;;17.05;14.75;;;17.00;76.50;;;;;;4789575;30;20117;-73
2022/09/23 18:57:50;;;;;;;18.92;15.27;;;17.00;76.50;;;;;;4792423;29;20054;-76
2022/09/23 19:00:16;;;;;;;18.00;14.75;;;17.00;76.50;;;;;;4777364;30;20047;-76